Huvudsida
METAR-TAF:

METAR-TAF

Flygplatser :

Siem Reap International Airport

Siem Reap, Kambodja

latitud: 13-22N, longitud: 103-51E, höjd: 15 m

Aktuellt väderrapport

Denna rapport gjordes för 37 minuter sedan, klockan 08:30 UTC
Vind 4 kt från ost/sydost, varierande mellan ost och syd/sydost
Temperatur 31°C
Fuktighet 63%
Tryck 1008 hPa
Sikt 10 km eller mer
Få moln på en höjd av 1700 ft

METAR: VDSR 210830Z 12004KT 090V150 9999 FEW017 31/23 Q1008

Tid: 16:07 (09:07 UTC)

Väderprognos

Denna rapport gjordes för 4 timmar och 7 minuter sedan, klockan 05:00 UTC
Prognos gäller från 21 kl. 06 UTC till 21 kl. 24 UTC
Vind 6 kt från sydost
Sikt 10 km eller mer
Spridda moln på en höjd av 1700 ft
Temporärt
från 21 kl. 08 UTC till 21 kl. 12 UTC
Sikt: 5000 m
Spridda moln på en höjd av 1500 ft
Få moln på en höjd av 1700 ft, Cumulonimbus.
Spridda moln på en höjd av 4000 ft
åska, regn

TAF: VDSR 210500Z 2106/2124 13006KT 9999 SCT017 TEMPO 2108/2112 5000 TSRA SCT015 FEW017CB SCT040

Aktuella väderrapporter och prognoser från 4000 flygplatser (METAR- och TAF-rapporter).

De tillgängliga stationerna syns som gula och röda prickar på kartan.

För musen över prickarna för att se namnen på stationerna.

Klicka sedan för att få väderrapporter och prognoser.

För att ändra kartan: Klicka på de gröna knapparna med ett svart kors på för att zooma in; den gröna knappen med ett streck på för att zooma ut; eller på de gröna pilarna för angränsande kartor.


METAR-TAF: